Farmington Hills, MI (48331)

21:32 EST 20. Prosinec 2014 (GMT -0500)
Shenandoah Golf Estates | Change Station
CLOSE
Current Station
Osobní povětrnostní stanice
Location: West Bloomfield, MI
Nadmořská výška: 994 ft
Poblíž povětrnostní stanice

Výška 994 ft 42.56 °N, 83.39 °W | Updated 9 seconds ago

Zataženo
Zataženo
27.4 °F
Pocit jako 27 °F
S
0.0
Vítr proměnlivý Vítr od JJV
Gusts 0.0 mil/h

Dnes
Vysoké -- | Nízké -- °F
--% Možnost srážek
Včera
Vysoké -- | Nízké -- °F
Precip. -- inčů
7:59 AM 5:03 PM
Ubývající srpek, 1% visible
Tlak 30.30 inčů
Viditelnost 10.0 mílí
Zataženo Zataženo 2500 ft
Ochlazování větrem 27 °F
Rosný bod 22 °F
Vlhkost 81%
Dešťové srážky 0.00 inčů
Sněhová pokrývka Není k dispozici
UV záření 0 ze 12
Pyl .10 ze 12
Kvalita ovzduší Není k dispozici
Flu Activity Není k dispozici
METAR KPTK 210153Z 22003KT 10SM OVC025 M02/M07 A3026 RMK AO2 SLP261 T10221067

More Conditions Fewer Conditions

Tlak 30.30 inčů
Viditelnost 10.0 mílí
Zataženo Zataženo 2500 ft
Ochlazování větrem 27 °F
Rosný bod 22 °F
Vlhkost 81%
Dešťové srážky 0.00 inčů
Sněhová pokrývka Není k dispozici
UV záření 0 ze 12
Pyl .10 ze 12
Kvalita ovzduší Není k dispozici
Flu Activity Není k dispozici
METAR KPTK 210153Z 22003KT 10SM OVC025 M02/M07 A3026 RMK AO2 SLP261 T10221067

More Conditions Fewer Conditions

10-Day Weather Forecast

Almanac

Astronomie

Dec. 20, 2014 Východ Západ
Skutečný čas
Občanský soumrak
Námořní soumrak
Astronomický soumrak
Měsíc
Délka denního světla
Délka dne
Tomorrow will be .
, % of the Moon is Illuminated

Dnešní extrémy

State Highs State Lows

Community

WunderPhotos

Upload Photos

1,779,348 snímků staženo!

WunderBlogs® & News

Nearby

Kvalita ovzduší

  Kvalita ovzduší Index kvality ovzduší Polutant
Not available.

Výška sněhu

Station Hloubka Nadmořská výška

Seizmická činnost

Město Distance Mag. Čas & datum
Minimální zobrazený rozsah je 2.5.

Pobřežní teplota vody

Lokalita Teplota

Poblíž povětrnostní stanice